createdAt,value
2018-03-11T00:02:06.893Z,69.00
2018-03-11T00:04:33.822Z,69.30
2018-03-11T00:07:00.054Z,69.30
2018-03-11T00:09:27.146Z,68.30
2018-03-11T00:11:54.037Z,69.40
2018-03-11T00:14:20.194Z,69.30
2018-03-11T00:16:46.358Z,67.70
2018-03-11T00:19:12.525Z,67.00
2018-03-11T00:21:39.459Z,67.60
2018-03-11T00:24:05.630Z,67.50
2018-03-11T00:26:32.528Z,68.60
2018-03-11T00:28:58.712Z,68.60
2018-03-11T00:31:25.650Z,69.30
2018-03-11T00:33:51.823Z,69.30
2018-03-11T00:36:18.749Z,70.50
2018-03-11T00:38:44.907Z,70.50
2018-03-11T00:41:11.828Z,70.50
2018-03-11T00:43:37.989Z,70.50
2018-03-11T00:46:04.153Z,69.60
2018-03-11T00:48:31.084Z,70.10
2018-03-11T00:50:57.278Z,69.90
2018-03-11T00:53:23.437Z,69.50
2018-03-11T00:55:49.600Z,70.10
2018-03-11T00:58:15.768Z,68.10
2018-03-11T01:00:42.674Z,66.10
2018-03-11T01:03:08.944Z,66.10
2018-03-11T01:05:35.141Z,67.40
2018-03-11T01:08:08.326Z,67.00
2018-03-11T01:10:34.627Z,68.50
2018-03-11T01:13:04.008Z,69.80
2018-03-11T01:15:30.169Z,70.20
2018-03-11T01:17:56.603Z,69.50
2018-03-11T01:20:22.806Z,70.10
2018-03-11T01:22:48.962Z,71.60
2018-03-11T01:25:15.095Z,71.80
2018-03-11T01:27:41.253Z,74.20
2018-03-11T01:30:08.299Z,71.40
2018-03-11T01:32:34.531Z,71.40
2018-03-11T01:35:01.062Z,70.00
2018-03-11T01:37:27.369Z,72.20
2018-03-11T01:39:53.575Z,70.80
2018-03-11T01:42:19.781Z,70.60
2018-03-11T01:44:46.716Z,70.30
2018-03-11T01:47:12.873Z,70.20
2018-03-11T01:49:39.785Z,69.00
2018-03-11T01:52:05.932Z,68.80
2018-03-11T01:54:32.092Z,69.40
2018-03-11T01:56:58.990Z,70.50
2018-03-11T01:59:25.149Z,69.90
2018-03-11T02:01:51.317Z,70.60
2018-03-11T02:04:17.439Z,71.50
2018-03-11T02:06:43.957Z,72.40
2018-03-11T02:09:10.426Z,72.80
2018-03-11T02:11:36.925Z,73.20
2018-03-11T02:14:04.988Z,74.00
2018-03-11T02:16:31.477Z,74.80
2018-03-11T02:18:57.665Z,75.20
2018-03-11T02:21:23.868Z,75.40
2018-03-11T02:23:50.030Z,75.90
2018-03-11T02:26:16.925Z,76.40
2018-03-11T02:28:43.791Z,76.40
2018-03-11T02:31:09.978Z,76.40
2018-03-11T02:33:36.230Z,76.20
2018-03-11T02:36:02.405Z,76.30
2018-03-11T02:38:29.306Z,76.50
2018-03-11T02:40:55.525Z,76.50
2018-03-11T02:43:21.696Z,76.70
2018-03-11T02:45:47.880Z,76.70
2018-03-11T02:48:14.761Z,76.60
2018-03-11T02:50:40.929Z,76.60
2018-03-11T02:53:07.091Z,76.40
2018-03-11T02:55:33.268Z,76.60
2018-03-11T02:57:59.420Z,76.40
2018-03-11T03:00:25.598Z,76.50
2018-03-11T03:02:52.597Z,76.60
2018-03-11T03:05:34.627Z,76.60
2018-03-11T03:08:00.781Z,76.50
2018-03-11T03:10:27.036Z,76.60
2018-03-11T03:12:53.215Z,77.10
2018-03-11T03:15:19.407Z,77.00
2018-03-11T03:17:45.548Z,76.40
2018-03-11T03:20:11.686Z,76.20
2018-03-11T03:22:37.841Z,76.30
2018-03-11T03:25:04.027Z,75.00
2018-03-11T03:27:30.945Z,73.50
2018-03-11T03:29:58.006Z,73.50
2018-03-11T03:32:24.128Z,73.40
2018-03-11T03:34:50.310Z,74.50
2018-03-11T03:37:17.246Z,73.00
2018-03-11T03:39:43.432Z,73.00
2018-03-11T03:42:09.565Z,73.70
2018-03-11T03:44:36.483Z,73.70
2018-03-11T03:47:02.653Z,73.70
2018-03-11T03:49:29.540Z,71.90
2018-03-11T03:51:55.757Z,71.80
2018-03-11T03:54:22.640Z,72.50
2018-03-11T03:56:48.828Z,72.50
2018-03-11T03:59:14.966Z,73.50
2018-03-11T04:01:42.169Z,72.50
2018-03-11T04:04:08.352Z,72.90
2018-03-11T04:06:34.560Z,72.40
2018-03-11T04:09:00.729Z,72.40
2018-03-11T04:11:27.920Z,73.00
2018-03-11T04:13:54.833Z,75.50
2018-03-11T04:16:20.958Z,75.40
2018-03-11T04:18:47.133Z,74.90
2018-03-11T04:21:14.011Z,73.50
2018-03-11T04:23:40.140Z,73.50
2018-03-11T04:26:06.317Z,74.60
2018-03-11T04:28:32.463Z,75.10
2018-03-11T04:30:58.614Z,75.70
2018-03-11T04:33:35.989Z,77.00
2018-03-11T04:36:03.243Z,75.80
2018-03-11T04:38:29.407Z,75.50
2018-03-11T04:40:55.574Z,76.40
2018-03-11T04:43:21.729Z,76.90
2018-03-11T04:45:47.909Z,74.60
2018-03-11T04:48:14.800Z,74.30
2018-03-11T04:50:40.931Z,74.30
2018-03-11T04:53:07.113Z,74.40
2018-03-11T04:55:33.259Z,75.40
2018-03-11T04:57:59.415Z,76.60
2018-03-11T05:00:25.579Z,77.30
2018-03-11T05:02:51.761Z,77.40
2018-03-11T05:05:18.945Z,77.80
2018-03-11T05:07:45.097Z,78.20
2018-03-11T05:10:12.009Z,78.30
2018-03-11T05:12:38.169Z,78.30
2018-03-11T05:15:04.340Z,78.60
2018-03-11T05:17:30.515Z,78.70
2018-03-11T05:19:56.723Z,79.10
2018-03-11T05:22:22.886Z,81.20
2018-03-11T05:24:49.026Z,79.10
2018-03-11T05:27:15.188Z,79.00
2018-03-11T05:29:41.337Z,79.40
2018-03-11T05:32:07.518Z,79.40
2018-03-11T05:34:33.961Z,79.70
2018-03-11T05:37:00.125Z,80.00
2018-03-11T05:39:26.298Z,80.70
2018-03-11T05:41:52.484Z,80.20
2018-03-11T05:44:18.617Z,80.50
2018-03-11T05:46:44.753Z,80.60
2018-03-11T05:49:11.673Z,80.50
2018-03-11T05:51:37.881Z,80.50
2018-03-11T05:54:04.268Z,80.60
2018-03-11T05:56:37.042Z,80.50
2018-03-11T05:59:03.221Z,80.70
2018-03-11T06:01:30.140Z,81.20
2018-03-11T06:03:56.297Z,81.30
2018-03-11T06:06:22.485Z,81.50
2018-03-11T06:08:48.629Z,80.70
2018-03-11T06:11:14.861Z,80.90
2018-03-11T06:13:41.031Z,81.50
2018-03-11T06:16:07.186Z,80.50
2018-03-11T06:18:33.355Z,80.50
2018-03-11T06:21:02.404Z,79.90
2018-03-11T06:23:28.553Z,79.80
2018-03-11T06:25:54.726Z,79.70
2018-03-11T06:28:20.911Z,79.20
2018-03-11T06:30:47.090Z,79.80
2018-03-11T06:33:13.281Z,78.80
2018-03-11T06:35:39.481Z,78.80
2018-03-11T06:38:05.969Z,79.30
2018-03-11T06:40:32.111Z,78.70
2018-03-11T06:42:58.280Z,78.60
2018-03-11T06:45:24.444Z,77.90
2018-03-11T06:47:50.573Z,75.20
2018-03-11T06:50:17.489Z,68.30
2018-03-11T06:52:43.636Z,68.40
2018-03-11T06:55:13.236Z,65.40
2018-03-11T06:57:39.389Z,63.10
2018-03-11T07:00:05.664Z,61.90
2018-03-11T07:02:31.822Z,60.50
2018-03-11T07:04:58.430Z,59.40
2018-03-11T07:07:24.615Z,58.50
2018-03-11T07:09:50.780Z,58.30
2018-03-11T07:12:16.985Z,56.80
2018-03-11T07:14:43.141Z,56.00
2018-03-11T07:17:10.097Z,54.70
2018-03-11T07:19:37.051Z,55.10
2018-03-11T07:22:03.970Z,55.10
2018-03-11T07:24:30.191Z,55.10
2018-03-11T07:26:56.387Z,55.40
2018-03-11T07:29:22.548Z,57.10
2018-03-11T07:31:49.462Z,54.80
2018-03-11T07:34:16.339Z,54.80
2018-03-11T07:36:42.519Z,56.50
2018-03-11T07:39:08.701Z,54.10
2018-03-11T07:41:34.914Z,53.70
2018-03-11T07:44:01.072Z,54.80
2018-03-11T07:46:27.251Z,54.50
2018-03-11T07:48:54.287Z,54.60
2018-03-11T07:51:20.607Z,54.50
2018-03-11T07:53:46.830Z,54.90
2018-03-11T07:56:25.813Z,53.40
2018-03-11T07:58:52.042Z,53.80
2018-03-11T08:01:18.181Z,53.90
2018-03-11T08:03:44.336Z,53.10
2018-03-11T08:06:10.517Z,52.40
2018-03-11T08:08:36.697Z,53.10
2018-03-11T08:11:02.961Z,53.20
2018-03-11T08:13:29.868Z,52.30
2018-03-11T08:15:56.025Z,52.80
2018-03-11T08:18:22.931Z,50.50
2018-03-11T08:20:49.822Z,51.00
2018-03-11T08:23:17.022Z,51.00
2018-03-11T08:25:43.244Z,49.70
2018-03-11T08:28:09.486Z,50.50
2018-03-11T08:33:44.056Z,49.80
2018-03-11T08:36:15.908Z,49.80
2018-03-11T08:38:42.164Z,49.80
2018-03-11T08:41:08.839Z,50.60
2018-03-11T08:43:35.744Z,52.20
2018-03-11T08:46:02.247Z,51.80
2018-03-11T08:48:33.306Z,50.80
2018-03-11T08:51:00.471Z,51.80
2018-03-11T08:53:27.526Z,51.80
2018-03-11T08:55:54.603Z,50.80
2018-03-11T08:58:21.643Z,50.60
2018-03-11T09:00:47.991Z,50.60
2018-03-11T09:03:14.387Z,48.80
2018-03-11T09:05:40.733Z,49.30
2018-03-11T09:08:07.120Z,50.10
2018-03-11T09:10:34.191Z,49.50
2018-03-11T09:13:01.699Z,49.00
2018-03-11T09:15:28.055Z,48.40
2018-03-11T09:17:59.638Z,47.10
2018-03-11T09:20:25.990Z,48.50
2018-03-11T09:22:52.296Z,47.50
2018-03-11T09:25:18.679Z,48.20
2018-03-11T09:27:45.055Z,48.60
2018-03-11T09:30:12.733Z,49.20
2018-03-11T09:32:39.894Z,50.90
2018-03-11T09:35:07.224Z,50.60
2018-03-11T09:37:33.743Z,50.50
2018-03-11T09:40:00.105Z,50.70
2018-03-11T09:42:26.414Z,50.10
2018-03-11T09:44:52.698Z,50.10
2018-03-11T09:47:18.973Z,49.60
2018-03-11T09:50:04.725Z,47.90
2018-03-11T09:52:31.173Z,48.00
2018-03-11T09:54:57.501Z,48.20
2018-03-11T09:57:24.234Z,47.80
2018-03-11T09:59:50.537Z,48.10
2018-03-11T10:02:17.024Z,48.00
2018-03-11T10:04:43.290Z,48.10
2018-03-11T10:09:48.034Z,46.50
2018-03-11T10:12:14.332Z,46.40
2018-03-11T10:14:40.675Z,46.20
2018-03-11T10:17:07.040Z,46.60
2018-03-11T10:19:33.378Z,48.20
2018-03-11T10:22:00.634Z,46.50
2018-03-11T10:24:27.006Z,46.50
2018-03-11T10:26:53.994Z,46.50
2018-03-11T10:29:20.217Z,45.80
2018-03-11T10:31:55.369Z,45.50
2018-03-11T10:34:21.578Z,43.90
2018-03-11T10:36:47.860Z,42.50
2018-03-11T10:39:14.136Z,42.10
2018-03-11T10:41:41.426Z,42.50
2018-03-11T10:44:07.681Z,42.20
2018-03-11T10:46:34.811Z,42.20
2018-03-11T10:49:01.293Z,42.20
2018-03-11T10:51:28.278Z,41.20
2018-03-11T10:53:54.541Z,41.20
2018-03-11T10:56:22.376Z,39.80
2018-03-11T10:58:48.666Z,39.80
2018-03-11T11:01:14.970Z,40.90
2018-03-11T11:03:47.399Z,38.20
2018-03-11T11:06:14.235Z,39.80
2018-03-11T11:08:52.558Z,40.20
2018-03-11T11:11:18.885Z,40.60
2018-03-11T11:13:45.241Z,39.10
2018-03-11T11:16:11.533Z,41.30
2018-03-11T11:18:40.691Z,40.30
2018-03-11T11:21:07.097Z,40.30
2018-03-11T11:23:33.393Z,40.20
2018-03-11T11:25:59.722Z,40.50
2018-03-11T11:28:26.108Z,39.80
2018-03-11T11:30:52.433Z,39.70
2018-03-11T11:33:18.762Z,39.60
2018-03-11T11:35:45.109Z,40.00
2018-03-11T11:38:11.371Z,39.80
2018-03-11T11:40:38.022Z,39.90
2018-03-11T11:43:05.360Z,38.70
2018-03-11T11:45:32.996Z,39.30
2018-03-11T11:48:00.292Z,39.60
2018-03-11T11:50:26.654Z,39.40
2018-03-11T11:52:57.627Z,38.80
2018-03-11T11:55:23.988Z,38.90
2018-03-11T11:57:50.298Z,38.20
2018-03-11T12:00:16.584Z,39.20
2018-03-11T12:02:42.960Z,38.30
2018-03-11T12:05:09.322Z,39.10
2018-03-11T12:07:36.469Z,39.30
2018-03-11T12:10:02.901Z,38.20
2018-03-11T12:12:29.438Z,38.50
2018-03-11T12:14:55.735Z,38.10
2018-03-11T12:17:22.007Z,38.20
2018-03-11T12:19:48.977Z,38.20
2018-03-11T12:22:15.334Z,38.20
2018-03-11T12:24:41.747Z,38.00
2018-03-11T12:27:08.197Z,37.40
2018-03-11T12:29:35.888Z,37.80
2018-03-11T12:32:02.239Z,37.70
2018-03-11T12:34:28.931Z,38.40
2018-03-11T12:36:55.205Z,38.10
2018-03-11T12:39:22.238Z,37.50
2018-03-11T12:41:48.525Z,37.50
2018-03-11T12:44:15.566Z,37.90
2018-03-11T12:46:41.913Z,37.90
2018-03-11T12:49:08.971Z,38.00
2018-03-11T12:51:35.660Z,38.00
2018-03-11T12:54:02.350Z,38.90
2018-03-11T12:56:29.380Z,38.70
2018-03-11T12:58:59.301Z,38.60
2018-03-11T13:01:26.851Z,38.60
2018-03-11T13:03:53.820Z,38.40
2018-03-11T13:06:20.142Z,38.40
2018-03-11T13:08:47.158Z,38.10
2018-03-11T13:11:13.381Z,38.00
2018-03-11T13:13:39.714Z,38.40
2018-03-11T13:16:06.050Z,38.20
2018-03-11T13:18:37.797Z,38.10
2018-03-11T13:21:08.585Z,37.70
2018-03-11T13:23:35.038Z,37.70
2018-03-11T13:29:19.394Z,38.30
2018-03-11T13:31:46.379Z,38.40
2018-03-11T13:34:24.916Z,38.90
2018-03-11T13:36:51.160Z,38.70
2018-03-11T13:39:29.703Z,38.60
2018-03-11T13:41:55.913Z,39.20
2018-03-11T13:44:22.904Z,40.30
2018-03-11T13:47:11.187Z,40.20
2018-03-11T13:49:38.181Z,40.10
2018-03-11T13:52:17.531Z,40.00
2018-03-11T13:54:44.566Z,40.20
2018-03-11T14:00:20.782Z,40.00
2018-03-11T14:02:46.949Z,40.00
2018-03-11T14:05:13.841Z,39.60
2018-03-11T14:07:40.013Z,39.60
2018-03-11T14:10:06.272Z,39.60
2018-03-11T14:12:32.423Z,39.70
2018-03-11T14:14:59.352Z,39.80
2018-03-11T14:17:25.512Z,39.80
2018-03-11T14:19:52.382Z,40.50
2018-03-11T14:22:36.830Z,40.80
2018-03-11T14:25:03.040Z,40.80
2018-03-11T14:27:29.602Z,41.00
2018-03-11T14:30:09.897Z,41.20
2018-03-11T14:32:36.875Z,41.90
2018-03-11T14:35:09.452Z,41.80
2018-03-11T14:37:38.389Z,42.30
2018-03-11T14:40:04.590Z,42.30
2018-03-11T14:42:31.505Z,42.60
2018-03-11T14:44:57.677Z,42.60
2018-03-11T14:47:24.032Z,42.70
2018-03-11T14:49:50.979Z,43.20
2018-03-11T14:52:17.148Z,42.60
2018-03-11T14:54:43.402Z,42.70
2018-03-11T14:57:09.625Z,42.70
2018-03-11T14:59:51.023Z,42.90
2018-03-11T15:02:21.655Z,43.20
2018-03-11T15:05:09.111Z,43.10
2018-03-11T15:07:36.500Z,43.10
2018-03-11T15:10:04.874Z,43.20
2018-03-11T15:12:33.199Z,42.90
2018-03-11T15:15:01.334Z,42.60
2018-03-11T15:17:28.806Z,42.30
2018-03-11T15:19:55.753Z,41.60
2018-03-11T15:22:21.918Z,41.60
2018-03-11T15:24:48.131Z,41.60
2018-03-11T15:27:15.029Z,41.20
2018-03-11T15:29:41.214Z,41.20
2018-03-11T15:32:07.496Z,41.60
2018-03-11T15:34:33.649Z,42.00
2018-03-11T15:37:06.214Z,42.30
2018-03-11T15:39:33.157Z,42.30
2018-03-11T15:42:04.337Z,43.10
2018-03-11T15:44:30.520Z,43.10
2018-03-11T15:46:57.435Z,43.30
2018-03-11T15:49:23.597Z,43.30
2018-03-11T15:51:54.173Z,43.00
2018-03-11T15:54:20.509Z,43.80
2018-03-11T15:56:46.791Z,44.10
2018-03-11T15:59:13.774Z,45.00
2018-03-11T16:01:39.995Z,45.00
2018-03-11T16:04:14.205Z,45.60
2018-03-11T16:06:40.606Z,45.40
2018-03-11T16:09:07.213Z,45.60
2018-03-11T16:11:37.888Z,46.10
2018-03-11T16:14:11.917Z,46.60
2018-03-11T16:16:39.850Z,47.00
2018-03-11T16:19:06.389Z,47.40
2018-03-11T16:21:32.614Z,47.90
2018-03-11T16:23:58.853Z,48.10
2018-03-11T16:26:25.892Z,48.50
2018-03-11T16:28:54.312Z,48.40
2018-03-11T16:31:20.631Z,48.90
2018-03-11T16:33:56.075Z,49.00
2018-03-11T16:36:22.505Z,49.10
2018-03-11T16:38:50.947Z,49.30
2018-03-11T16:41:17.168Z,49.60
2018-03-11T16:43:43.459Z,49.90
2018-03-11T16:46:10.450Z,50.70
2018-03-11T16:48:40.524Z,50.70
2018-03-11T16:51:07.566Z,51.10
2018-03-11T16:53:34.596Z,51.40
2018-03-11T16:56:05.031Z,51.40
2018-03-11T16:58:33.342Z,51.90
2018-03-11T17:00:59.568Z,52.10
2018-03-11T17:03:27.789Z,52.60
2018-03-11T17:05:53.989Z,52.90
2018-03-11T17:08:20.219Z,53.10
2018-03-11T17:10:48.270Z,53.90
2018-03-11T17:13:15.154Z,53.80
2018-03-11T17:15:41.785Z,54.00
2018-03-11T17:18:08.058Z,54.30
2018-03-11T17:20:35.049Z,55.00
2018-03-11T17:23:01.338Z,55.00
2018-03-11T17:25:32.157Z,55.60
2018-03-11T17:27:58.471Z,55.40
2018-03-11T17:30:24.794Z,55.80
2018-03-11T17:32:51.732Z,56.20
2018-03-11T17:35:17.884Z,56.70
2018-03-11T17:37:44.805Z,57.20
2018-03-11T17:40:10.948Z,56.60
2018-03-11T17:42:37.317Z,56.80
2018-03-11T17:45:04.678Z,56.80
2018-03-11T17:47:30.955Z,56.80
2018-03-11T17:49:57.122Z,56.70
2018-03-11T17:52:23.269Z,56.70
2018-03-11T17:54:49.457Z,56.50
2018-03-11T17:57:18.371Z,56.10
2018-03-11T17:59:46.503Z,56.20
2018-03-11T18:02:13.785Z,56.20
2018-03-11T18:04:40.000Z,56.50
2018-03-11T18:07:06.550Z,56.50
2018-03-11T18:09:34.869Z,56.70
2018-03-11T18:12:02.495Z,56.80
2018-03-11T18:14:28.757Z,57.20
2018-03-11T18:16:55.363Z,57.20
2018-03-11T18:19:22.670Z,57.30
2018-03-11T18:21:48.916Z,57.30
2018-03-11T18:24:15.901Z,57.90
2018-03-11T18:26:43.933Z,57.90
2018-03-11T18:29:10.275Z,57.90
2018-03-11T18:31:36.688Z,58.10
2018-03-11T18:34:03.776Z,58.20
2018-03-11T18:36:43.093Z,58.20
2018-03-11T18:39:09.454Z,58.30
2018-03-11T18:41:36.737Z,58.30
2018-03-11T18:44:03.022Z,58.20
2018-03-11T18:46:29.562Z,58.10
2018-03-11T18:48:56.992Z,58.30
2018-03-11T18:51:24.557Z,58.40
2018-03-11T18:53:50.723Z,58.70
2018-03-11T18:56:17.096Z,59.00
2018-03-11T18:58:44.335Z,59.10
2018-03-11T19:01:12.770Z,59.40
2018-03-11T19:03:39.325Z,59.80
2018-03-11T19:06:05.753Z,59.80
2018-03-11T19:08:36.029Z,59.90
2018-03-11T19:11:03.384Z,60.30
2018-03-11T19:13:30.720Z,60.70
2018-03-11T19:15:56.974Z,61.30
2018-03-11T19:18:23.402Z,61.00
2018-03-11T19:20:56.275Z,61.20
2018-03-11T19:23:22.976Z,61.30
2018-03-11T19:25:49.538Z,61.60
2018-03-11T19:28:17.981Z,62.20
2018-03-11T19:30:58.262Z,62.10
2018-03-11T19:33:28.209Z,62.40
2018-03-11T19:35:54.509Z,62.50
2018-03-11T19:38:26.943Z,62.70
2018-03-11T19:40:59.364Z,63.00
2018-03-11T19:43:25.893Z,63.20
2018-03-11T19:45:52.177Z,63.40
2018-03-11T19:48:18.583Z,63.20
2018-03-11T19:50:48.564Z,63.20
2018-03-11T19:53:14.847Z,63.30
2018-03-11T19:55:42.176Z,63.50
2018-03-11T19:58:10.872Z,63.50
2018-03-11T20:00:48.185Z,63.60
2018-03-11T20:03:21.217Z,63.50
2018-03-11T20:05:47.653Z,63.80
2018-03-11T20:08:39.379Z,63.60
2018-03-11T20:11:05.724Z,63.70
2018-03-11T20:13:32.126Z,63.20
2018-03-11T20:15:58.852Z,63.00
2018-03-11T20:18:25.975Z,63.30
2018-03-11T20:20:52.413Z,63.30
2018-03-11T20:23:18.736Z,63.90
2018-03-11T20:25:45.080Z,63.90
2018-03-11T20:28:12.205Z,63.20
2018-03-11T20:30:38.675Z,63.20
2018-03-11T20:33:05.219Z,63.30
2018-03-11T20:35:31.534Z,63.80
2018-03-11T20:37:59.880Z,64.80
2018-03-11T20:40:31.176Z,64.80
2018-03-11T20:43:08.798Z,65.10
2018-03-11T20:45:37.475Z,65.60
2018-03-11T20:48:03.936Z,65.50
2018-03-11T20:50:30.382Z,65.60
2018-03-11T20:52:59.028Z,65.40
2018-03-11T20:55:25.371Z,65.70
2018-03-11T20:57:52.620Z,65.80
2018-03-11T21:00:19.737Z,66.00
2018-03-11T21:02:47.625Z,65.90
2018-03-11T21:05:13.959Z,66.20
2018-03-11T21:07:40.278Z,66.10
2018-03-11T21:10:06.655Z,66.70
2018-03-11T21:12:32.986Z,66.60
2018-03-11T21:14:59.322Z,66.90
2018-03-11T21:17:44.069Z,67.00
2018-03-11T21:20:12.782Z,67.50
2018-03-11T21:22:39.530Z,67.50
2018-03-11T21:25:06.009Z,67.70
2018-03-11T21:27:33.205Z,67.80
2018-03-11T21:29:59.535Z,67.70
2018-03-11T21:32:31.021Z,67.40
2018-03-11T21:34:58.377Z,67.60
2018-03-11T21:37:25.648Z,67.90
2018-03-11T21:39:52.722Z,67.90
2018-03-11T21:42:27.150Z,68.10
2018-03-11T21:44:53.569Z,68.00
2018-03-11T21:47:34.914Z,68.30
2018-03-11T21:50:09.993Z,68.30
2018-03-11T21:52:36.483Z,68.40
2018-03-11T21:55:03.827Z,68.70
2018-03-11T21:57:30.365Z,68.70
2018-03-11T21:59:56.644Z,68.30
2018-03-11T22:02:23.096Z,68.30
2018-03-11T22:04:49.387Z,68.10
2018-03-11T22:07:15.931Z,68.10
2018-03-11T22:09:42.334Z,68.20
2018-03-11T22:12:09.357Z,68.30
2018-03-11T22:14:35.864Z,68.20
2018-03-11T22:17:07.208Z,68.30
2018-03-11T22:19:33.730Z,68.20
2018-03-11T22:22:04.184Z,67.90
2018-03-11T22:24:30.602Z,67.40
2018-03-11T22:26:57.041Z,67.40
2018-03-11T22:29:23.507Z,67.90
2018-03-11T22:31:50.551Z,67.50
2018-03-11T22:34:16.862Z,67.40
2018-03-11T22:36:43.235Z,67.30
2018-03-11T22:39:10.227Z,66.50
2018-03-11T22:41:37.481Z,67.00
2018-03-11T22:44:04.099Z,66.90
2018-03-11T22:46:30.660Z,66.60
2018-03-11T22:48:57.263Z,66.70
2018-03-11T22:51:23.639Z,66.90
2018-03-11T22:53:50.196Z,67.30
2018-03-11T22:56:16.492Z,67.30
2018-03-11T22:58:43.618Z,67.00
2018-03-11T23:01:10.484Z,67.00
2018-03-11T23:03:37.924Z,68.50
2018-03-11T23:06:04.435Z,67.00
2018-03-11T23:08:31.824Z,68.10
2018-03-11T23:10:58.623Z,68.10
2018-03-11T23:13:25.884Z,66.90
2018-03-11T23:15:52.428Z,66.80
2018-03-11T23:18:18.733Z,67.80
2018-03-11T23:20:45.066Z,67.70
2018-03-11T23:23:11.610Z,66.90
2018-03-11T23:25:38.088Z,68.10
2018-03-11T23:28:05.819Z,67.10
2018-03-11T23:30:32.208Z,66.40
2018-03-11T23:32:58.592Z,67.00
2018-03-11T23:35:24.941Z,67.90
2018-03-11T23:37:52.105Z,67.10
2018-03-11T23:40:19.378Z,65.50
2018-03-11T23:42:46.592Z,65.60
2018-03-11T23:45:13.153Z,65.60
2018-03-11T23:47:39.583Z,66.20
2018-03-11T23:50:05.972Z,66.60
2018-03-11T23:52:33.349Z,68.20
2018-03-11T23:54:59.967Z,68.10
2018-03-11T23:57:27.100Z,68.10
2018-03-11T23:59:53.433Z,68.10
